createdAt,value
2022-09-28T00:02:09.329Z,35.90
2022-09-28T00:05:29.326Z,35.80
2022-09-28T00:16:21.279Z,35.90
2022-09-28T00:19:33.124Z,35.90
2022-09-28T00:22:20.016Z,35.80
2022-09-28T00:25:08.578Z,35.90
2022-09-28T00:28:06.766Z,35.90
2022-09-28T00:30:56.734Z,36.00
2022-09-28T00:33:50.723Z,35.90
2022-09-28T00:36:44.737Z,36.00
2022-09-28T00:39:34.871Z,36.00
2022-09-28T00:42:29.261Z,36.00
2022-09-28T00:45:16.916Z,36.00
2022-09-28T00:48:10.457Z,35.90
2022-09-28T00:51:01.883Z,36.00
2022-09-28T00:53:43.764Z,36.00
2022-09-28T00:56:50.752Z,36.00
2022-09-28T00:59:52.729Z,36.10
2022-09-28T01:02:56.728Z,36.00
2022-09-28T01:06:10.935Z,36.10
2022-09-28T01:09:17.064Z,36.00
2022-09-28T01:12:27.150Z,36.00
2022-09-28T01:15:26.910Z,36.00
2022-09-28T01:18:44.954Z,36.10
2022-09-28T01:21:51.174Z,36.10
2022-09-28T01:24:55.541Z,36.00
2022-09-28T01:27:53.727Z,36.00
2022-09-28T01:30:40.332Z,36.00
2022-09-28T01:33:31.945Z,36.10
2022-09-28T01:36:21.241Z,36.00
2022-09-28T01:39:17.320Z,36.00
2022-09-28T01:42:03.321Z,36.10
2022-09-28T01:44:59.395Z,36.10
2022-09-28T01:47:53.858Z,36.70
2022-09-28T01:50:39.433Z,36.10
2022-09-28T01:53:32.185Z,36.10
2022-09-28T01:56:17.361Z,36.10
2022-09-28T01:59:03.550Z,36.10
2022-09-28T02:01:53.277Z,36.10
2022-09-28T02:04:45.378Z,36.10
2022-09-28T02:07:39.458Z,36.10
2022-09-28T02:10:33.618Z,36.10
2022-09-28T02:13:24.114Z,36.10
2022-09-28T02:16:15.902Z,36.10
2022-09-28T02:19:09.783Z,36.20
2022-09-28T02:21:57.769Z,36.10
2022-09-28T02:24:59.727Z,36.20
2022-09-28T02:27:51.625Z,36.30
2022-09-28T02:30:38.325Z,36.20
2022-09-28T02:33:35.715Z,36.30
2022-09-28T02:36:29.793Z,36.20
2022-09-28T02:39:21.930Z,36.20
2022-09-28T02:42:17.853Z,36.20
2022-09-28T02:45:16.075Z,36.20
2022-09-28T02:48:11.851Z,36.20
2022-09-28T02:51:06.442Z,36.20
2022-09-28T02:54:18.934Z,36.20
2022-09-28T02:57:20.615Z,36.20
2022-09-28T03:00:16.129Z,36.20
2022-09-28T03:03:18.573Z,36.20
2022-09-28T03:06:16.161Z,36.20
2022-09-28T03:09:18.190Z,36.20
2022-09-28T03:12:05.928Z,36.20
2022-09-28T03:14:54.348Z,36.20
2022-09-28T03:17:40.304Z,36.20
2022-09-28T03:20:28.235Z,36.30
2022-09-28T03:23:24.423Z,36.40
2022-09-28T03:26:16.443Z,36.40
2022-09-28T03:29:04.458Z,36.40
2022-09-28T03:31:50.976Z,36.40
2022-09-28T03:34:34.477Z,36.40
2022-09-28T03:37:16.312Z,36.50
2022-09-28T03:40:04.306Z,36.50
2022-09-28T03:42:54.344Z,36.50
2022-09-28T03:45:42.980Z,36.50
2022-09-28T03:48:36.408Z,36.60
2022-09-28T03:51:26.923Z,36.60
2022-09-28T03:54:15.147Z,36.60
2022-09-28T03:57:03.189Z,36.60
2022-09-28T04:00:00.549Z,36.60
2022-09-28T04:02:45.098Z,36.60
2022-09-28T04:05:36.593Z,36.60
2022-09-28T04:08:25.145Z,36.60
2022-09-28T04:11:12.614Z,36.70
2022-09-28T04:13:58.687Z,36.60
2022-09-28T04:16:57.327Z,36.60
2022-09-28T04:19:49.208Z,36.70
2022-09-28T04:22:42.596Z,36.60
2022-09-28T04:25:24.562Z,36.60
2022-09-28T04:28:36.770Z,36.70
2022-09-28T04:31:30.910Z,36.70
2022-09-28T04:34:35.160Z,36.70
2022-09-28T04:37:18.733Z,36.70
2022-09-28T04:40:21.640Z,36.70
2022-09-28T04:43:27.473Z,36.80
2022-09-28T04:46:37.501Z,36.70
2022-09-28T04:49:39.464Z,36.70
2022-09-28T04:52:36.822Z,36.70
2022-09-28T04:55:31.110Z,36.70
2022-09-28T04:58:24.881Z,36.70
2022-09-28T05:01:25.705Z,36.70
2022-09-28T05:04:22.383Z,36.70
2022-09-28T05:07:18.794Z,36.70
2022-09-28T05:10:12.979Z,36.70
2022-09-28T05:13:01.695Z,36.60
2022-09-28T05:15:54.839Z,36.70
2022-09-28T05:18:36.176Z,36.70
2022-09-28T05:21:21.959Z,36.70
2022-09-28T05:24:18.247Z,36.60
2022-09-28T05:30:18.260Z,36.70
2022-09-28T05:33:18.396Z,36.70
2022-09-28T05:36:25.231Z,36.70
2022-09-28T05:39:33.648Z,36.70
2022-09-28T05:42:17.877Z,36.70
2022-09-28T05:45:12.512Z,36.70
2022-09-28T05:48:01.349Z,36.70
2022-09-28T05:55:30.014Z,36.70
2022-09-28T05:58:17.822Z,36.70
2022-09-28T06:00:58.818Z,36.70
2022-09-28T06:03:44.250Z,36.70
2022-09-28T06:06:28.086Z,36.60
2022-09-28T06:09:12.672Z,36.80
2022-09-28T06:12:01.610Z,36.70
2022-09-28T06:14:48.683Z,36.70
2022-09-28T06:17:30.323Z,36.70
2022-09-28T06:20:12.721Z,36.70
2022-09-28T06:22:55.651Z,36.70
2022-09-28T06:25:42.755Z,36.70
2022-09-28T06:28:26.493Z,36.70
2022-09-28T06:31:11.502Z,36.70
2022-09-28T06:33:48.847Z,36.70
2022-09-28T06:36:28.512Z,36.80
2022-09-28T06:39:17.144Z,36.80
2022-09-28T06:41:56.389Z,36.70
2022-09-28T06:44:36.954Z,36.80
2022-09-28T06:47:24.875Z,36.80
2022-09-28T06:50:02.684Z,36.80
2022-09-28T06:52:43.905Z,36.80
2022-09-28T06:55:30.970Z,36.80
2022-09-28T06:58:20.404Z,36.80
2022-09-28T07:01:05.568Z,36.80
2022-09-28T07:03:47.514Z,36.80
2022-09-28T07:06:30.762Z,36.90
2022-09-28T07:09:31.368Z,36.90
2022-09-28T07:12:24.944Z,36.90
2022-09-28T07:15:03.094Z,37.00
2022-09-28T07:17:58.505Z,37.00
2022-09-28T07:20:54.112Z,37.20
2022-09-28T07:23:51.989Z,37.20
2022-09-28T07:26:34.669Z,37.30
2022-09-28T07:29:13.258Z,37.40
2022-09-28T07:32:07.243Z,37.30
2022-09-28T07:34:58.777Z,37.30
2022-09-28T07:37:32.787Z,37.20
2022-09-28T07:40:30.151Z,37.30
2022-09-28T07:43:25.349Z,36.90
2022-09-28T08:07:26.811Z,37.00
2022-09-28T08:10:12.015Z,36.90
2022-09-28T08:12:59.141Z,36.80
2022-09-28T08:15:49.888Z,36.90
2022-09-28T08:18:37.604Z,36.90
2022-09-28T08:21:32.008Z,36.90
2022-09-28T08:24:30.439Z,36.90
2022-09-28T08:27:17.731Z,36.80
2022-09-28T08:30:06.247Z,36.80
2022-09-28T08:33:01.634Z,36.80
2022-09-28T08:35:56.901Z,36.70
2022-09-28T08:38:36.514Z,36.70
2022-09-28T08:41:25.728Z,36.70
2022-09-28T08:44:17.430Z,36.60
2022-09-28T08:46:53.267Z,36.60
2022-09-28T08:49:48.897Z,36.50
2022-09-28T08:52:57.677Z,36.50
2022-09-28T08:55:49.824Z,36.50
2022-09-28T08:58:40.941Z,36.40
2022-09-28T09:01:38.007Z,36.50
2022-09-28T09:04:33.545Z,36.50
2022-09-28T09:08:15.758Z,36.50
2022-09-28T09:11:51.925Z,36.40
2022-09-28T09:16:19.516Z,36.30
2022-09-28T09:19:00.868Z,36.30
2022-09-28T09:22:20.626Z,36.20
2022-09-28T09:25:41.653Z,36.20
2022-09-28T09:28:54.449Z,36.10
2022-09-28T09:31:50.415Z,36.10
2022-09-28T09:34:48.077Z,36.10
2022-09-28T09:37:55.283Z,36.10
2022-09-28T09:49:22.360Z,35.90
2022-09-28T09:52:13.993Z,35.80
2022-09-28T09:55:30.457Z,35.80
2022-09-28T09:58:41.165Z,35.80
2022-09-28T10:01:30.272Z,35.70
2022-09-28T10:04:14.636Z,35.60
2022-09-28T10:06:50.187Z,35.60
2022-09-28T10:10:08.172Z,35.60
2022-09-28T10:12:45.970Z,35.50
2022-09-28T10:16:04.620Z,35.60
2022-09-28T10:23:11.644Z,35.40
2022-09-28T10:25:59.927Z,35.40
2022-09-28T10:29:00.244Z,35.30
2022-09-28T10:32:41.137Z,35.20
2022-09-28T10:43:38.081Z,35.10
2022-09-28T10:47:38.853Z,35.10
2022-09-28T10:50:33.147Z,35.10
2022-09-28T10:53:48.788Z,35.00
2022-09-28T10:57:58.968Z,35.10
2022-09-28T11:04:46.780Z,34.90
2022-09-28T11:07:42.377Z,34.90
2022-09-28T11:13:53.674Z,34.90
2022-09-28T11:17:10.460Z,35.00
2022-09-28T11:20:12.767Z,34.90
2022-09-28T11:23:29.861Z,34.90
2022-09-28T11:26:12.744Z,34.90
2022-09-28T11:28:55.221Z,34.90
2022-09-28T11:31:32.558Z,34.90
2022-09-28T11:34:59.999Z,34.90
2022-09-28T11:38:02.085Z,34.80
2022-09-28T11:40:53.852Z,34.80
2022-09-28T11:43:58.799Z,34.80
2022-09-28T11:46:48.849Z,34.80
2022-09-28T11:50:12.929Z,34.80
2022-09-28T11:53:24.981Z,34.80
2022-09-28T11:56:24.779Z,34.70
2022-09-28T11:59:24.990Z,34.70
2022-09-28T12:02:34.157Z,34.60
2022-09-28T12:05:37.051Z,34.50
2022-09-28T12:08:45.745Z,34.50
2022-09-28T12:11:51.733Z,34.60
2022-09-28T12:14:38.318Z,34.50
2022-09-28T12:17:40.505Z,34.50
2022-09-28T12:20:37.203Z,34.50
2022-09-28T12:23:30.477Z,34.40
2022-09-28T12:26:43.261Z,34.40
2022-09-28T12:29:33.372Z,34.30
2022-09-28T12:32:31.351Z,34.40
2022-09-28T12:35:28.773Z,34.30
2022-09-28T12:38:40.570Z,34.30
2022-09-28T12:41:39.464Z,34.40
2022-09-28T12:44:50.029Z,34.40
2022-09-28T12:48:09.607Z,34.50
2022-09-28T12:51:13.188Z,34.50
2022-09-28T12:54:13.907Z,34.60
2022-09-28T12:57:09.642Z,34.60
2022-09-28T13:00:04.750Z,34.70
2022-09-28T13:03:03.641Z,35.30
2022-09-28T13:06:15.876Z,34.70
2022-09-28T13:09:20.296Z,34.90
2022-09-28T13:12:15.723Z,34.80
2022-09-28T13:15:18.491Z,35.50
2022-09-28T13:18:00.089Z,34.90
2022-09-28T13:21:02.552Z,34.90
2022-09-28T13:24:00.775Z,34.90
2022-09-28T13:27:06.557Z,34.90
2022-09-28T13:29:58.718Z,35.00
2022-09-28T13:32:33.423Z,35.10
2022-09-28T13:35:23.053Z,35.00
2022-09-28T13:38:41.040Z,35.10
2022-09-28T13:41:30.670Z,35.10
2022-09-28T13:44:58.155Z,35.10
2022-09-28T13:48:24.279Z,35.10
2022-09-28T13:51:30.601Z,35.20
2022-09-28T13:54:25.271Z,35.30
2022-09-28T13:57:17.170Z,35.30
2022-09-28T14:00:16.041Z,35.20
2022-09-28T14:03:12.134Z,35.30
2022-09-28T14:06:36.225Z,35.30
2022-09-28T14:09:58.285Z,35.30
2022-09-28T14:12:49.813Z,35.30
2022-09-28T14:15:47.145Z,35.20
2022-09-28T14:18:45.717Z,35.30
2022-09-28T14:21:52.301Z,35.30
2022-09-28T14:24:40.392Z,35.30
2022-09-28T14:27:38.407Z,35.40
2022-09-28T14:30:29.446Z,35.50
2022-09-28T14:33:58.492Z,35.50
2022-09-28T14:37:16.342Z,35.40
2022-09-28T14:40:31.682Z,35.50
2022-09-28T14:43:35.815Z,35.40
2022-09-28T14:47:04.646Z,35.50
2022-09-28T14:50:34.567Z,35.60
2022-09-28T14:53:48.943Z,35.50
2022-09-28T14:56:40.772Z,35.40
2022-09-28T14:59:40.607Z,35.50
2022-09-28T15:02:56.150Z,35.40
2022-09-28T15:06:04.766Z,35.50
2022-09-28T15:09:03.839Z,35.40
2022-09-28T15:11:52.832Z,35.40
2022-09-28T15:14:34.008Z,35.40
2022-09-28T15:17:33.661Z,35.40
2022-09-28T15:20:27.304Z,35.40
2022-09-28T15:23:12.868Z,35.40
2022-09-28T15:26:18.366Z,35.40
2022-09-28T15:29:10.479Z,35.50
2022-09-28T15:32:09.035Z,35.40
2022-09-28T15:34:57.996Z,35.40
2022-09-28T15:37:53.002Z,35.50
2022-09-28T15:40:52.841Z,35.50
2022-09-28T15:43:45.609Z,35.50
2022-09-28T15:46:41.352Z,35.50
2022-09-28T15:49:43.964Z,35.50
2022-09-28T15:56:03.653Z,35.50
2022-09-28T15:59:53.447Z,35.50
2022-09-28T16:03:59.525Z,35.50
2022-09-28T16:07:30.868Z,35.60
2022-09-28T16:10:53.405Z,35.50
2022-09-28T16:21:37.206Z,35.60
2022-09-28T16:25:05.688Z,35.60
2022-09-28T16:33:40.769Z,35.70
2022-09-28T16:41:22.901Z,35.80
2022-09-28T16:53:00.054Z,35.90
2022-09-28T17:04:53.442Z,36.00
2022-09-28T17:08:10.890Z,36.10
2022-09-28T17:11:26.173Z,36.10
2022-09-28T17:14:26.171Z,36.20
2022-09-28T17:17:34.499Z,36.10
2022-09-28T17:20:44.144Z,36.20
2022-09-28T17:24:05.262Z,36.20
2022-09-28T17:26:50.227Z,36.30
2022-09-28T17:29:44.307Z,36.30
2022-09-28T17:32:35.314Z,36.30
2022-09-28T17:35:39.415Z,36.30
2022-09-28T17:38:50.303Z,36.90
2022-09-28T17:41:43.288Z,36.30
2022-09-28T17:44:32.216Z,36.30
2022-09-28T17:47:33.542Z,36.30
2022-09-28T17:50:39.242Z,36.30
2022-09-28T17:53:32.480Z,36.20
2022-09-28T17:56:31.037Z,36.30
2022-09-28T17:59:29.553Z,36.30
2022-09-28T18:02:31.007Z,36.30
2022-09-28T18:05:26.619Z,36.20
2022-09-28T18:08:15.068Z,36.30
2022-09-28T18:11:14.457Z,36.20
2022-09-28T18:14:20.591Z,36.30
2022-09-28T18:17:15.946Z,36.30
2022-09-28T18:20:16.854Z,36.20
2022-09-28T18:23:02.612Z,36.20
2022-09-28T18:25:51.956Z,36.20
2022-09-28T18:28:57.946Z,36.20
2022-09-28T18:31:57.967Z,36.20
2022-09-28T18:34:59.883Z,36.20
2022-09-28T18:37:58.029Z,36.20
2022-09-28T18:40:59.972Z,36.20
2022-09-28T18:44:05.882Z,36.20
2022-09-28T18:47:02.933Z,36.30
2022-09-28T18:50:02.758Z,36.20
2022-09-28T18:53:17.819Z,36.30
2022-09-28T18:56:15.018Z,36.20
2022-09-28T18:59:16.218Z,36.20
2022-09-28T19:02:16.705Z,36.30
2022-09-28T19:05:22.115Z,36.30
2022-09-28T19:08:15.049Z,36.30
2022-09-28T19:11:18.169Z,36.20
2022-09-28T19:14:21.229Z,36.20
2022-09-28T19:17:28.421Z,36.20
2022-09-28T19:20:34.254Z,36.30
2022-09-28T19:23:54.644Z,36.30
2022-09-28T19:27:03.305Z,36.30
2022-09-28T19:30:10.286Z,36.30
2022-09-28T19:33:10.501Z,36.20
2022-09-28T19:36:28.679Z,36.20
2022-09-28T19:39:40.646Z,36.30
2022-09-28T19:42:58.586Z,36.30
2022-09-28T19:46:21.526Z,36.30
2022-09-28T19:49:51.509Z,36.30
2022-09-28T19:52:51.666Z,36.30
2022-09-28T19:56:22.555Z,36.90
2022-09-28T19:59:33.404Z,36.30
2022-09-28T20:02:45.508Z,36.30
2022-09-28T20:05:51.873Z,36.30
2022-09-28T20:08:52.850Z,36.30
2022-09-28T20:11:46.976Z,36.30
2022-09-28T20:14:48.042Z,36.30
2022-09-28T20:17:51.674Z,36.40
2022-09-28T20:20:54.026Z,36.40
2022-09-28T20:23:45.848Z,36.30
2022-09-28T20:26:43.617Z,36.40
2022-09-28T20:29:30.115Z,36.40
2022-09-28T20:32:36.188Z,36.40
2022-09-28T20:35:40.911Z,36.40
2022-09-28T20:38:48.196Z,36.50
2022-09-28T20:41:52.246Z,36.50
2022-09-28T20:44:51.970Z,36.40
2022-09-28T20:47:47.204Z,36.50
2022-09-28T20:50:41.311Z,36.40
2022-09-28T20:53:39.895Z,36.40
2022-09-28T20:56:47.787Z,36.50
2022-09-28T20:59:41.270Z,36.50
2022-09-28T21:02:53.400Z,36.50
2022-09-28T21:06:12.681Z,36.50
2022-09-28T21:09:17.372Z,36.50
2022-09-28T21:12:23.478Z,36.50
2022-09-28T21:15:25.276Z,36.50
2022-09-28T21:18:35.505Z,36.40
2022-09-28T21:21:49.539Z,36.50
2022-09-28T21:24:53.591Z,36.50
2022-09-28T21:32:18.952Z,36.50
2022-09-28T21:36:03.462Z,36.50
2022-09-28T21:39:15.213Z,36.50
2022-09-28T21:42:33.458Z,36.50
2022-09-28T21:45:45.459Z,36.50
2022-09-28T21:48:47.705Z,36.60
2022-09-28T21:51:45.293Z,36.60
2022-09-28T21:54:51.456Z,36.60
2022-09-28T21:57:51.574Z,36.60
2022-09-28T22:01:01.148Z,36.60
2022-09-28T22:04:07.174Z,36.60
2022-09-28T22:10:27.485Z,36.60
2022-09-28T22:13:39.704Z,36.70
2022-09-28T22:16:28.099Z,36.60
2022-09-28T22:19:15.439Z,36.60
2022-09-28T22:22:22.569Z,36.60
2022-09-28T22:25:43.389Z,36.70
2022-09-28T22:28:39.412Z,36.70
2022-09-28T22:31:49.445Z,36.60
2022-09-28T22:34:57.983Z,36.70
2022-09-28T22:38:04.023Z,36.70
2022-09-28T22:41:05.213Z,36.70
2022-09-28T22:44:05.365Z,36.60
2022-09-28T22:46:58.044Z,36.70
2022-09-28T22:49:55.706Z,36.80
2022-09-28T22:52:46.203Z,36.70
2022-09-28T22:55:45.811Z,36.70
2022-09-28T22:58:46.171Z,36.70
2022-09-28T23:01:43.766Z,36.80
2022-09-28T23:05:01.705Z,36.80
2022-09-28T23:08:27.259Z,36.80
2022-09-28T23:11:16.116Z,36.80
2022-09-28T23:14:25.050Z,36.80
2022-09-28T23:17:19.634Z,36.80
2022-09-28T23:20:30.275Z,36.80
2022-09-28T23:23:25.351Z,36.80
2022-09-28T23:26:36.565Z,36.80
2022-09-28T23:29:37.976Z,36.80
2022-09-28T23:32:32.144Z,36.80
2022-09-28T23:35:20.060Z,36.80
2022-09-28T23:38:14.041Z,36.80
2022-09-28T23:41:00.731Z,36.90
2022-09-28T23:43:50.829Z,36.80
2022-09-28T23:47:00.801Z,36.80
2022-09-28T23:49:50.734Z,36.80
2022-09-28T23:52:34.731Z,36.80
2022-09-28T23:55:33.215Z,36.80
2022-09-28T23:58:38.234Z,36.90
